Time;durP1;ratioP1;P1;durP2;ratioP2;P2;SDS_P1;SDS_P2;PMS_P1;PMS_P2;Temp;Humidity;BMP_temperature;BMP_pressure;BME280_temperature;BME280_humidity;BME280_pressure;Samples;Min_cycle;Max_cycle;Signal;HPM_P1;HPM_P2
2021/06/06 00:01:39;;;;;;;14.43;10.30;;;;;;;16.56;100.00;96711.88;5017925;28;20539;-93
2021/06/06 00:04:08;;;;;;;16.33;11.20;;;;;;;16.60;100.00;96711.47;5021829;28;20477;-92
2021/06/06 00:09:30;;;;;;;13.00;10.23;;;;;;;16.57;100.00;96709.88;5021080;28;20460;-93
2021/06/06 00:11:57;;;;;;;13.53;10.50;;;;;;;16.66;100.00;96719.34;5020732;28;20988;-92
2021/06/06 00:14:26;;;;;;;12.33;9.80;;;;;;;16.65;100.00;96707.00;5023844;28;20482;-93
2021/06/06 00:16:55;;;;;;;16.43;9.87;;;;;;;16.67;100.00;96707.88;5022247;28;20455;-94
2021/06/06 00:19:23;;;;;;;11.70;9.30;;;;;;;16.61;100.00;96704.69;5021099;28;20506;-93
2021/06/06 00:21:53;;;;;;;12.00;9.40;;;;;;;16.66;100.00;96700.28;5022051;28;20499;-93
2021/06/06 00:24:23;;;;;;;12.53;9.87;;;;;;;16.54;100.00;96706.28;5021164;28;20495;-94
2021/06/06 00:26:49;;;;;;;12.37;9.53;;;;;;;16.49;100.00;96701.81;5017398;28;20416;-92
2021/06/06 00:29:16;;;;;;;13.23;9.73;;;;;;;16.50;100.00;96695.06;5017725;28;20925;-90
2021/06/06 00:31:42;;;;;;;10.93;9.00;;;;;;;16.46;100.00;96697.50;5016733;28;20980;-89
2021/06/06 00:34:09;;;;;;;12.90;9.70;;;;;;;16.47;100.00;96698.22;5016335;28;20452;-89
2021/06/06 00:36:35;;;;;;;12.10;8.00;;;;;;;16.49;100.00;96695.63;5015854;28;20440;-91
2021/06/06 00:39:04;;;;;;;10.70;8.27;;;;;;;16.49;100.00;96690.91;5017098;28;20510;-91
2021/06/06 00:41:31;;;;;;;11.50;9.10;;;;;;;16.44;100.00;96699.34;5017574;28;20531;-90
2021/06/06 00:43:58;;;;;;;15.93;9.50;;;;;;;16.40;100.00;96699.06;5016011;28;20432;-89
2021/06/06 00:46:27;;;;;;;15.30;9.53;;;;;;;16.39;100.00;96695.63;5016656;28;20440;-89
2021/06/06 00:48:54;;;;;;;12.93;9.50;;;;;;;16.46;100.00;96697.50;5016489;28;20974;-91
2021/06/06 00:51:24;;;;;;;12.37;9.90;;;;;;;16.33;100.00;96700.63;5016490;28;20487;-88
2021/06/06 00:53:53;;;;;;;12.63;9.63;;;;;;;16.33;100.00;96694.44;5016485;28;20589;-89
2021/06/06 00:56:25;;;;;;;12.77;9.07;;;;;;;16.35;100.00;96697.34;5017765;28;20528;-93
2021/06/06 00:58:54;;;;;;;13.73;8.90;;;;;;;16.39;100.00;96697.63;5018640;28;20793;-87
2021/06/06 01:01:22;;;;;;;12.60;8.40;;;;;;;16.39;100.00;96700.34;5020939;28;20945;-89
2021/06/06 01:03:52;;;;;;;12.97;9.50;;;;;;;16.33;100.00;96695.19;5020403;28;20937;-87
2021/06/06 01:06:25;;;;;;;13.60;10.07;;;;;;;16.32;100.00;96688.28;5020489;28;20479;-89
2021/06/06 01:08:52;;;;;;;13.90;9.80;;;;;;;16.30;100.00;96696.31;5019768;28;20417;-89
2021/06/06 01:11:25;;;;;;;10.87;8.20;;;;;;;16.24;100.00;96704.03;5020217;28;20452;-89
2021/06/06 01:13:55;;;;;;;12.43;8.20;;;;;;;16.26;100.00;96703.47;5017878;28;20425;-89
2021/06/06 01:16:28;;;;;;;12.00;8.40;;;;;;;16.24;100.00;96695.16;5017289;28;20447;-90
2021/06/06 01:18:57;;;;;;;11.93;9.40;;;;;;;16.31;100.00;96686.16;5016361;28;20448;-90
2021/06/06 01:21:33;;;;;;;11.67;8.73;;;;;;;16.32;100.00;96690.31;5019553;28;20571;-89
2021/06/06 01:24:13;;;;;;;12.53;9.27;;;;;;;16.32;100.00;96688.28;5022964;28;20507;-89
2021/06/06 01:26:43;;;;;;;10.87;7.77;;;;;;;16.21;100.00;96690.84;5029244;28;20440;-90
2021/06/06 01:29:19;;;;;;;13.77;9.80;;;;;;;16.19;100.00;96687.97;5018427;28;20470;-89
2021/06/06 01:31:50;;;;;;;12.50;9.67;;;;;;;16.24;100.00;96679.53;5017606;28;20436;-92
2021/06/06 01:34:19;;;;;;;12.57;9.10;;;;;;;16.23;100.00;96680.81;5016399;28;20518;-91
2021/06/06 01:36:50;;;;;;;14.60;9.93;;;;;;;16.17;100.00;96682.38;5016448;28;20974;-92
2021/06/06 01:39:22;;;;;;;9.67;8.43;;;;;;;16.19;100.00;96677.09;5017394;28;20576;-92
2021/06/06 01:41:51;;;;;;;12.23;8.20;;;;;;;16.11;100.00;96679.22;5016748;28;20432;-92
2021/06/06 01:44:22;;;;;;;15.00;9.17;;;;;;;16.12;100.00;96675.22;5016944;28;20472;-92
2021/06/06 01:46:53;;;;;;;12.67;9.30;;;;;;;16.10;100.00;96675.06;5017575;28;20434;-92
2021/06/06 01:49:22;;;;;;;12.57;8.20;;;;;;;16.14;100.00;96678.78;5016675;28;20435;-90
2021/06/06 01:51:52;;;;;;;12.50;9.40;;;;;;;16.12;100.00;96669.75;5017023;28;20448;-91
2021/06/06 01:54:22;;;;;;;12.60;9.20;;;;;;;16.12;100.00;96677.94;5032376;28;20544;-90
2021/06/06 01:56:50;;;;;;;12.40;9.40;;;;;;;16.16;100.00;96676.22;5038411;28;20444;-90
2021/06/06 01:59:22;;;;;;;14.30;8.43;;;;;;;16.18;100.00;96673.66;5038489;28;20475;-91
2021/06/06 02:01:49;;;;;;;13.63;7.30;;;;;;;16.13;100.00;96679.38;5037694;28;20428;-91
2021/06/06 02:04:15;;;;;;;11.57;7.80;;;;;;;16.13;100.00;96676.66;5017261;28;20535;-91
2021/06/06 02:06:44;;;;;;;10.67;7.80;;;;;;;16.05;100.00;96674.03;5017714;28;20478;-91
2021/06/06 02:09:16;;;;;;;9.83;8.07;;;;;;;16.04;100.00;96669.88;5017142;28;20531;-91
2021/06/06 02:11:48;;;;;;;13.53;8.47;;;;;;;16.04;100.00;96673.31;5016782;28;20896;-91
2021/06/06 02:14:18;;;;;;;9.20;6.63;;;;;;;16.04;100.00;96667.16;5015996;28;20543;-89
2021/06/06 02:16:49;;;;;;;10.67;7.10;;;;;;;16.03;100.00;96669.19;5016081;28;20479;-90
2021/06/06 02:19:15;;;;;;;11.07;7.30;;;;;;;16.07;100.00;96669.47;5015685;28;20539;-89
2021/06/06 02:21:42;;;;;;;12.73;8.17;;;;;;;16.10;100.00;96669.63;5016006;28;20594;-90
2021/06/06 02:24:08;;;;;;;9.73;7.03;;;;;;;16.07;100.00;96674.91;5015531;28;20444;-90
2021/06/06 02:26:41;;;;;;;9.43;7.60;;;;;;;16.05;100.00;96669.31;5015816;28;20448;-89
2021/06/06 02:29:18;;;;;;;9.93;7.50;;;;;;;16.03;100.00;96671.91;5025653;28;20508;-89
2021/06/06 02:31:50;;;;;;;9.87;8.40;;;;;;;16.04;100.00;96672.59;5016510;28;20471;-91
2021/06/06 02:34:25;;;;;;;9.97;7.20;;;;;;;15.93;100.00;96665.72;5016837;28;20811;-91
2021/06/06 02:36:56;;;;;;;10.97;8.37;;;;;;;16.00;100.00;96672.31;5016711;28;20470;-92
2021/06/06 02:39:27;;;;;;;13.80;6.97;;;;;;;16.00;100.00;96655.97;5016471;28;20482;-91
2021/06/06 02:41:57;;;;;;;11.60;7.73;;;;;;;16.00;100.00;96666.88;5016135;28;20460;-92
2021/06/06 02:44:29;;;;;;;15.77;8.80;;;;;;;16.02;100.00;96661.56;5016543;28;20887;-92
2021/06/06 02:46:58;;;;;;;10.00;7.73;;;;;;;15.96;100.00;96661.13;5036308;28;20419;-91
2021/06/06 02:49:26;;;;;;;11.83;7.87;;;;;;;15.95;100.00;96663.13;5037884;28;20472;-89
2021/06/06 02:51:58;;;;;;;9.20;6.53;;;;;;;16.07;100.00;96661.28;5037517;28;20532;-90
2021/06/06 02:54:29;;;;;;;11.63;7.93;;;;;;;16.10;100.00;96664.19;5024111;28;20543;-89
2021/06/06 02:56:59;;;;;;;9.70;6.63;;;;;;;16.16;100.00;96668.06;5015923;28;20431;-89
2021/06/06 02:59:32;;;;;;;12.83;7.93;;;;;;;16.12;100.00;96662.31;5015577;28;20475;-89
2021/06/06 03:02:01;;;;;;;11.23;7.77;;;;;;;16.13;100.00;96663.75;5018451;28;20973;-89
2021/06/06 03:04:30;;;;;;;14.13;7.77;;;;;;;16.03;100.00;96666.47;5018108;28;20453;-89
2021/06/06 03:07:00;;;;;;;16.23;8.60;;;;;;;15.97;100.00;96663.28;5018699;28;20941;-90
2021/06/06 03:09:26;;;;;;;9.40;6.83;;;;;;;16.02;100.00;96661.56;5019342;28;20851;-90
2021/06/06 03:11:54;;;;;;;14.00;7.50;;;;;;;15.95;100.00;96659.69;5018539;28;20539;-90
2021/06/06 03:14:24;;;;;;;9.40;7.20;;;;;;;15.94;100.00;96658.25;5019068;28;20467;-90
2021/06/06 03:16:56;;;;;;;8.23;7.00;;;;;;;15.91;100.00;96659.41;5018474;28;20522;-90
2021/06/06 03:19:25;;;;;;;8.53;6.73;;;;;;;15.96;100.00;96659.13;5018762;28;20500;-91
2021/06/06 03:21:52;;;;;;;10.67;7.17;;;;;;;15.97;100.00;96657.84;5019025;28;20462;-91
2021/06/06 03:24:23;;;;;;;13.47;7.20;;;;;;;16.01;100.00;96652.69;5019765;28;20471;-91
2021/06/06 03:26:51;;;;;;;14.37;7.50;;;;;;;15.93;100.00;96654.09;5021139;28;20432;-91
2021/06/06 03:29:21;;;;;;;12.83;6.53;;;;;;;15.90;100.00;96650.50;5020608;28;20452;-90
2021/06/06 03:32:01;;;;;;;11.27;6.73;;;;;;;15.90;100.00;96655.22;5019982;28;20456;-90
2021/06/06 03:34:27;;;;;;;12.27;6.93;;;;;;;15.91;100.00;96651.22;5020335;28;20507;-90
2021/06/06 03:36:54;;;;;;;9.43;7.27;;;;;;;15.93;100.00;96654.09;5020301;28;20860;-89
2021/06/06 03:39:27;;;;;;;10.30;6.70;;;;;;;15.89;100.00;96649.06;5018970;28;20476;-90
2021/06/06 03:41:55;;;;;;;13.17;7.30;;;;;;;15.83;100.00;96645.91;5019314;28;20455;-89
2021/06/06 03:44:22;;;;;;;9.00;7.13;;;;;;;15.85;100.00;96643.31;5018960;28;21022;-89
2021/06/06 03:46:48;;;;;;;18.40;9.53;;;;;;;15.81;100.00;96653.19;5018797;28;20520;-89
2021/06/06 03:49:17;;;;;;;14.30;8.30;;;;;;;15.69;100.00;96653.03;5018348;28;20467;-89
2021/06/06 03:51:44;;;;;;;17.30;9.83;;;;;;;15.66;100.00;96643.28;5018929;28;20539;-88
2021/06/06 03:54:11;;;;;;;15.27;8.93;;;;;;;15.73;100.00;96653.31;5017449;28;20507;-89
2021/06/06 03:56:38;;;;;;;15.40;9.37;;;;;;;15.65;100.00;96650.00;5018578;28;21028;-89
2021/06/06 03:59:04;;;;;;;17.40;10.07;;;;;;;15.69;100.00;96647.59;5018166;28;20451;-89
2021/06/06 04:01:30;;;;;;;18.90;11.00;;;;;;;15.65;100.00;96649.28;5017954;28;20551;-89
2021/06/06 04:03:56;;;;;;;19.80;10.17;;;;;;;15.66;100.00;96643.28;5018495;28;20444;-90
2021/06/06 04:06:24;;;;;;;19.00;10.40;;;;;;;15.66;100.00;96653.44;5018103;28;20924;-91
2021/06/06 04:08:50;;;;;;;17.83;11.60;;;;;;;15.55;100.00;96646.50;5019691;28;20455;-89
2021/06/06 04:11:16;;;;;;;22.73;10.73;;;;;;;15.52;100.00;96645.66;5018393;28;20420;-89
2021/06/06 04:13:43;;;;;;;22.90;10.77;;;;;;;15.54;100.00;96645.06;5019505;28;20447;-91
2021/06/06 04:16:09;;;;;;;16.10;9.07;;;;;;;15.66;100.00;96648.00;5018899;28;20554;-90
2021/06/06 04:18:36;;;;;;;17.60;9.27;;;;;;;15.57;100.00;96638.50;5018130;28;20455;-89
2021/06/06 04:21:05;;;;;;;21.20;11.23;;;;;;;15.62;100.00;96634.81;5018033;28;20528;-89
2021/06/06 04:23:33;;;;;;;22.30;9.77;;;;;;;15.50;100.00;96631.19;5018987;28;20516;-92
2021/06/06 04:26:00;;;;;;;27.50;11.50;;;;;;;15.51;100.00;96633.31;5018506;28;20550;-92
2021/06/06 04:28:26;;;;;;;21.57;11.33;;;;;;;15.51;100.00;96635.31;5017527;28;20452;-90
2021/06/06 04:30:53;;;;;;;24.10;12.33;;;;;;;15.49;100.00;96627.03;5018344;28;20453;-89
2021/06/06 04:33:19;;;;;;;19.23;9.67;;;;;;;15.53;100.00;96632.78;5017971;28;20519;-91
2021/06/06 04:35:46;;;;;;;19.83;10.63;;;;;;;15.55;100.00;96632.91;5018639;28;20464;-90
2021/06/06 04:38:14;;;;;;;17.43;10.17;;;;;;;15.51;100.00;96629.88;5018183;28;20539;-91
2021/06/06 04:40:42;;;;;;;22.63;11.53;;;;;;;15.53;100.00;96633.50;5019342;28;20529;-91
2021/06/06 04:43:09;;;;;;;20.07;10.83;;;;;;;15.58;100.00;96639.94;5017907;28;21008;-90
2021/06/06 04:45:35;;;;;;;24.63;12.63;;;;;;;15.55;100.00;96643.78;5018868;28;20482;-90
2021/06/06 04:48:13;;;;;;;20.50;11.37;;;;;;;15.54;100.00;96631.47;5018554;28;20425;-91
2021/06/06 04:50:39;;;;;;;20.10;10.30;;;;;;;15.56;100.00;96639.06;5018959;28;20450;-89
2021/06/06 04:53:05;;;;;;;27.27;11.20;;;;;;;15.62;100.00;96640.25;5027416;28;20499;-90
2021/06/06 04:55:32;;;;;;;21.53;10.27;;;;;;;15.61;100.00;96636.09;5017562;28;20455;-89
2021/06/06 04:57:59;;;;;;;32.13;12.73;;;;;;;15.68;100.00;96640.69;5017868;28;20493;-89
2021/06/06 05:00:29;;;;;;;21.87;11.27;;;;;;;15.60;100.00;96631.91;5018338;28;20983;-90
2021/06/06 05:02:55;;;;;;;20.87;11.80;;;;;;;15.67;100.00;96633.81;5018322;28;20447;-90
2021/06/06 05:05:23;;;;;;;18.17;10.40;;;;;;;15.66;100.00;96637.84;5018224;28;20468;-89
2021/06/06 05:07:51;;;;;;;21.03;11.10;;;;;;;15.64;100.00;96639.66;5018088;28;20967;-90
2021/06/06 05:10:19;;;;;;;23.40;11.20;;;;;;;15.60;100.00;96639.38;5020404;28;20439;-91
2021/06/06 05:12:45;;;;;;;20.33;11.60;;;;;;;15.53;100.00;96632.78;5038867;28;20420;-91
2021/06/06 05:15:14;;;;;;;23.50;12.83;;;;;;;15.45;100.00;96635.56;5038957;28;20451;-91
2021/06/06 05:17:40;;;;;;;29.70;14.13;;;;;;;15.45;100.00;96629.41;5030825;28;20866;-91
2021/06/06 05:20:08;;;;;;;20.67;11.93;;;;;;;15.56;100.00;96637.06;5016121;28;20563;-91
2021/06/06 05:22:34;;;;;;;23.33;12.27;;;;;;;15.57;100.00;96635.78;5017076;28;20428;-90
2021/06/06 05:25:01;;;;;;;21.83;12.07;;;;;;;15.50;100.00;96642.78;5017354;28;21055;-90
2021/06/06 05:27:27;;;;;;;20.00;13.33;;;;;;;15.48;100.00;96639.91;5016944;28;20451;-90
2021/06/06 05:29:53;;;;;;;21.10;11.60;;;;;;;15.49;100.00;96641.34;5017015;28;20951;-89
2021/06/06 05:32:21;;;;;;;24.83;12.07;;;;;;;15.58;100.00;96644.66;5016966;28;20435;-90
2021/06/06 05:34:47;;;;;;;20.20;12.27;;;;;;;15.46;100.00;96641.72;5018078;28;20452;-89
2021/06/06 05:37:13;;;;;;;21.00;12.00;;;;;;;15.46;100.00;96642.44;5019175;28;20535;-90
2021/06/06 05:39:40;;;;;;;19.93;12.47;;;;;;;15.41;100.00;96646.13;5017934;28;20796;-91
2021/06/06 05:42:07;;;;;;;26.20;12.63;;;;;;;15.43;100.00;96646.31;5017788;28;20479;-90
2021/06/06 05:44:33;;;;;;;21.50;12.93;;;;;;;15.36;100.00;96646.41;5018760;28;20487;-90
2021/06/06 05:47:00;;;;;;;21.17;12.67;;;;;;;15.32;100.00;96649.53;5018149;28;20454;-90
2021/06/06 05:49:27;;;;;;;26.87;13.93;;;;;;;15.48;100.00;96652.78;5017831;28;20838;-90
2021/06/06 05:51:53;;;;;;;22.83;14.27;;;;;;;15.39;100.00;96658.84;5017320;28;20439;-91
2021/06/06 05:54:21;;;;;;;24.00;14.43;;;;;;;15.30;100.00;96652.09;5018052;28;20842;-91
2021/06/06 05:56:47;;;;;;;32.80;14.87;;;;;;;15.21;100.00;96652.75;5017712;28;20440;-91
2021/06/06 05:59:14;;;;;;;19.67;12.77;;;;;;;15.24;100.00;96654.34;5018059;28;20440;-92
2021/06/06 06:01:42;;;;;;;21.80;13.30;;;;;;;15.23;100.00;96644.75;5017327;28;20515;-91
2021/06/06 06:04:09;;;;;;;21.20;13.23;;;;;;;15.30;100.00;96648.66;5016709;28;20449;-91
2021/06/06 06:06:36;;;;;;;20.83;12.93;;;;;;;15.16;100.00;96653.03;5017801;28;20502;-91
2021/06/06 06:09:04;;;;;;;23.90;14.60;;;;;;;15.32;100.00;96654.97;5017756;28;20839;-91
2021/06/06 06:11:31;;;;;;;22.80;11.70;;;;;;;15.19;100.00;96649.88;5017855;28;20996;-91
2021/06/06 06:13:57;;;;;;;18.60;12.60;;;;;;;15.28;100.00;96653.94;5018107;28;20811;-91
2021/06/06 06:16:27;;;;;;;18.57;12.10;;;;;;;15.29;100.00;96645.22;5017531;28;20454;-91
2021/06/06 06:18:54;;;;;;;22.03;13.37;;;;;;;15.26;100.00;96649.06;5017798;28;20419;-91
2021/06/06 06:21:20;;;;;;;19.07;13.43;;;;;;;15.18;100.00;96650.44;5016951;28;20630;-91
2021/06/06 06:23:48;;;;;;;21.40;11.70;;;;;;;15.16;100.00;96650.31;5017688;28;20448;-91
2021/06/06 06:26:14;;;;;;;22.93;12.93;;;;;;;15.13;100.00;96651.44;5017187;28;20465;-91
2021/06/06 06:28:45;;;;;;;18.93;12.27;;;;;;;15.19;100.00;96654.63;5018297;28;20511;-90
2021/06/06 06:31:12;;;;;;;19.10;11.70;;;;;;;15.22;100.00;96659.66;5018291;28;20523;-91
2021/06/06 06:33:38;;;;;;;17.17;11.30;;;;;;;15.20;100.00;96659.47;5017337;28;20456;-91
2021/06/06 06:36:05;;;;;;;20.20;12.70;;;;;;;15.14;100.00;96661.72;5020677;28;20487;-90
2021/06/06 06:38:33;;;;;;;16.70;11.27;;;;;;;15.25;100.00;96665.94;5021606;28;20450;-91
2021/06/06 06:41:00;;;;;;;19.37;10.70;;;;;;;15.16;100.00;96658.47;5020829;28;20538;-91
2021/06/06 06:43:27;;;;;;;19.00;12.67;;;;;;;15.18;100.00;96664.03;5026723;28;20979;-90
2021/06/06 06:45:54;;;;;;;15.43;10.97;;;;;;;15.24;100.00;96672.66;5039489;28;20470;-91
2021/06/06 06:48:22;;;;;;;15.67;11.37;;;;;;;15.21;100.00;96662.91;5039213;28;20451;-89
2021/06/06 06:50:50;;;;;;;18.80;12.40;;;;;;;15.30;100.00;96671.13;5039834;28;20464;-90
2021/06/06 06:53:17;;;;;;;13.97;10.70;;;;;;;15.28;100.00;96664.81;5040698;28;20499;-90
2021/06/06 06:55:43;;;;;;;17.80;12.63;;;;;;;15.32;100.00;96674.00;5040226;28;20511;-90
2021/06/06 06:58:12;;;;;;;18.53;11.53;;;;;;;15.24;100.00;96665.22;5040020;28;20423;-89
2021/06/06 07:00:43;;;;;;;17.40;11.57;;;;;;;15.30;100.00;96664.97;5040201;28;20508;-90
2021/06/06 07:03:12;;;;;;;17.43;11.63;;;;;;;15.30;100.00;96671.13;5040680;28;20425;-90
2021/06/06 07:05:39;;;;;;;14.87;11.83;;;;;;;15.19;100.00;96668.91;5040434;28;20527;-88
2021/06/06 07:08:10;;;;;;;13.10;10.93;;;;;;;15.21;100.00;96662.91;5040349;28;20436;-89
2021/06/06 07:10:40;;;;;;;16.47;10.87;;;;;;;15.24;100.00;96673.38;5040245;28;20463;-90
2021/06/06 07:13:06;;;;;;;16.63;11.40;;;;;;;15.28;100.00;96668.28;5040436;28;20483;-90
2021/06/06 07:15:35;;;;;;;20.10;11.83;;;;;;;15.29;100.00;96669.69;5039682;28;20523;-90
2021/06/06 07:18:02;;;;;;;15.13;12.37;;;;;;;15.33;100.00;96663.84;5036781;28;20452;-91
2021/06/06 07:20:31;;;;;;;18.20;12.53;;;;;;;15.23;100.00;96663.06;5039906;28;20557;-88
2021/06/06 07:22:58;;;;;;;19.27;13.30;;;;;;;15.23;100.00;96666.50;5040129;28;20436;-90
2021/06/06 07:25:26;;;;;;;17.40;11.93;;;;;;;15.26;100.00;96667.38;5039605;28;20463;-89
2021/06/06 07:27:54;;;;;;;17.30;12.83;;;;;;;15.28;100.00;96672.97;5039569;28;20467;-90
2021/06/06 07:30:26;;;;;;;15.60;12.17;;;;;;;15.24;100.00;96672.66;5039669;28;20443;-89
2021/06/06 07:32:55;;;;;;;17.47;13.37;;;;;;;15.29;100.00;96672.41;5040061;28;20436;-89
2021/06/06 07:35:24;;;;;;;13.63;11.33;;;;;;;15.39;100.00;96672.47;5034762;23;20542;-90
2021/06/06 07:37:50;;;;;;;15.40;12.20;;;;;;;15.35;100.00;96674.84;5020018;28;20407;-89
2021/06/06 07:40:16;;;;;;;24.90;13.53;;;;;;;15.29;100.00;96677.13;5019728;28;20534;-90
2021/06/06 07:42:43;;;;;;;16.63;11.80;;;;;;;15.34;100.00;96668.72;5006915;28;20438;-88
2021/06/06 07:45:12;;;;;;;16.90;12.10;;;;;;;15.42;100.00;96674.03;5004680;28;20630;-90
2021/06/06 07:47:40;;;;;;;23.60;13.60;;;;;;;15.34;100.00;96673.44;5000848;28;20542;-89
2021/06/06 07:50:10;;;;;;;17.17;12.73;;;;;;;15.38;100.00;96677.19;5001019;28;20513;-88
2021/06/06 07:52:36;;;;;;;22.70;13.80;;;;;;;15.31;100.00;96680.72;5004339;28;20429;-87
2021/06/06 07:55:04;;;;;;;20.73;13.03;;;;;;;15.27;100.00;96679.69;5016574;28;20460;-88
2021/06/06 07:57:30;;;;;;;27.63;13.80;;;;;;;15.27;100.00;96674.97;5017584;28;20490;-89
2021/06/06 07:59:56;;;;;;;25.27;14.80;;;;;;;15.35;100.00;96672.13;5018966;28;20445;-90
2021/06/06 08:02:23;;;;;;;29.17;15.13;;;;;;;15.20;100.00;96681.22;5017818;28;20445;-90
2021/06/06 08:04:49;;;;;;;24.07;14.40;;;;;;;15.07;100.00;96683.59;5005771;28;20476;-90
2021/06/06 08:07:16;;;;;;;25.27;15.97;;;;;;;15.08;100.00;96682.28;5000523;28;20860;-89
2021/06/06 08:09:43;;;;;;;21.80;14.20;;;;;;;15.21;100.00;96676.50;5001678;28;20484;-91
2021/06/06 08:12:10;;;;;;;32.30;14.50;;;;;;;15.12;100.00;96680.63;5001760;28;20808;-91
2021/06/06 08:14:36;;;;;;;28.13;16.10;;;;;;;15.15;100.00;96679.50;4982879;28;20999;-92
2021/06/06 08:17:02;;;;;;;34.87;16.07;;;;;;;15.16;100.00;96680.22;5001998;28;20548;-92
2021/06/06 08:19:29;;;;;;;28.03;16.00;;;;;;;15.14;100.00;96677.31;5001341;28;20493;-91
2021/06/06 08:21:56;;;;;;;41.17;17.90;;;;;;;15.10;100.00;96672.28;5000720;28;20557;-92
2021/06/06 08:24:23;;;;;;;28.33;16.43;;;;;;;15.11;100.00;96683.88;5002154;28;20497;-91
2021/06/06 08:26:49;;;;;;;30.10;15.27;;;;;;;15.09;100.00;96672.84;5002208;28;20524;-92
2021/06/06 08:29:16;;;;;;;30.57;15.50;;;;;;;15.07;100.00;96673.41;5007427;28;20492;-92
2021/06/06 08:31:44;;;;;;;25.20;15.13;;;;;;;15.21;100.00;96671.06;5002823;28;20437;-90
2021/06/06 08:34:10;;;;;;;33.60;17.00;;;;;;;15.30;100.00;96668.41;5003056;28;20457;-92
2021/06/06 08:36:41;;;;;;;28.50;15.50;;;;;;;15.30;100.00;96662.25;5001800;28;20504;-89
2021/06/06 08:39:11;;;;;;;30.53;17.93;;;;;;;15.23;100.00;96665.78;4999240;28;20524;-88
2021/06/06 08:41:45;;;;;;;30.80;16.73;;;;;;;15.26;100.00;96667.38;4999139;28;20479;-89
2021/06/06 08:44:17;;;;;;;22.00;15.07;;;;;;;15.36;100.00;96662.72;4999767;28;20507;-92
2021/06/06 08:46:52;;;;;;;25.40;16.93;;;;;;;15.29;100.00;96666.97;5000860;28;20434;-91
2021/06/06 08:49:18;;;;;;;32.73;17.20;;;;;;;15.34;100.00;96668.00;5000728;28;20433;-90
2021/06/06 08:51:49;;;;;;;23.53;16.10;;;;;;;15.41;100.00;96672.63;4999963;28;20477;-90
2021/06/06 08:54:23;;;;;;;31.90;18.07;;;;;;;15.48;100.00;96667.09;5001724;28;20532;-89
2021/06/06 08:56:55;;;;;;;31.10;17.87;;;;;;;15.50;100.00;96666.53;5000556;28;20549;-89
2021/06/06 08:59:28;;;;;;;37.33;17.70;;;;;;;15.45;100.00;96670.91;4999534;28;20422;-89
2021/06/06 09:01:57;;;;;;;29.67;18.20;;;;;;;15.48;100.00;96671.81;5002650;28;20461;-91
2021/06/06 09:04:27;;;;;;;27.37;17.97;;;;;;;15.45;100.00;96673.63;5007418;28;20488;-90
2021/06/06 09:06:58;;;;;;;29.93;18.37;;;;;;;15.45;100.00;96678.34;5008241;28;20585;-88
2021/06/06 09:09:29;;;;;;;34.23;19.10;;;;;;;15.49;100.00;96675.97;5014012;28;20421;-88
2021/06/06 09:12:00;;;;;;;36.03;20.40;;;;;;;15.34;100.00;96679.59;5018104;28;20456;-88
2021/06/06 09:14:27;;;;;;;35.57;18.87;;;;;;;15.37;100.00;96677.75;5017158;28;20461;-95
2021/06/06 09:17:00;;;;;;;28.60;18.20;;;;;;;15.42;100.00;96677.50;5002915;28;20442;-89
2021/06/06 09:19:38;;;;;;;31.60;19.13;;;;;;;15.39;100.00;96675.19;5001726;28;20429;-90
2021/06/06 09:22:05;;;;;;;29.07;18.40;;;;;;;15.53;100.00;96679.00;5000324;28;20465;-89
2021/06/06 09:24:35;;;;;;;28.10;18.07;;;;;;;15.59;100.00;96678.75;4999361;28;20844;-90
2021/06/06 09:27:15;;;;;;;26.03;15.57;;;;;;;15.62;100.00;96680.34;5001724;28;20496;-90
2021/06/06 09:29:46;;;;;;;27.93;16.10;;;;;;;15.63;100.00;96681.78;4997044;28;20414;-91
2021/06/06 09:32:19;;;;;;;27.53;15.50;;;;;;;15.68;100.00;96673.34;4999718;28;20461;-90
2021/06/06 09:34:54;;;;;;;23.40;14.37;;;;;;;15.62;100.00;96683.06;4999345;28;20603;-89
2021/06/06 09:37:23;;;;;;;22.50;14.40;;;;;;;15.73;100.00;96685.97;4999884;28;20432;-91
2021/06/06 09:39:57;;;;;;;26.80;16.43;;;;;;;15.77;100.00;96680.81;5000238;28;20512;-90
2021/06/06 09:42:34;;;;;;;24.63;16.53;;;;;;;15.82;100.00;96687.31;5000385;28;20476;-92
2021/06/06 09:45:05;;;;;;;28.13;16.87;;;;;;;15.81;100.00;96686.56;4999695;28;20500;-89
2021/06/06 09:47:33;;;;;;;27.60;17.20;;;;;;;15.85;100.00;96683.44;5000492;28;20570;-89
2021/06/06 09:50:19;;;;;;;28.50;17.63;;;;;;;15.82;100.00;96690.72;5000273;28;20444;-90
2021/06/06 09:52:47;;;;;;;27.93;16.00;;;;;;;15.67;100.00;96690.94;4999270;28;20437;-90
2021/06/06 09:55:19;;;;;;;26.80;17.20;;;;;;;15.78;100.00;96690.44;4999112;28;20855;-90
2021/06/06 09:57:50;;;;;;;31.40;18.57;;;;;;;15.63;100.00;96687.22;4998654;28;20532;-90
2021/06/06 10:00:29;;;;;;;35.77;20.40;;;;;;;15.66;100.00;96692.25;4998223;28;20524;-89
2021/06/06 10:02:57;;;;;;;31.20;19.40;;;;;;;15.76;100.00;96689.53;4999524;28;20835;-89
2021/06/06 10:05:28;;;;;;;28.07;19.60;;;;;;;15.78;100.00;96692.44;4998592;28;20456;-90
2021/06/06 10:07:58;;;;;;;34.77;21.60;;;;;;;15.80;100.00;96693.31;4998199;28;20466;-89
2021/06/06 10:10:29;;;;;;;33.80;22.27;;;;;;;15.81;100.00;96692.03;5001370;28;20544;-90
2021/06/06 10:13:00;;;;;;;32.53;21.00;;;;;;;15.76;100.00;96706.59;5002943;28;20461;-90
2021/06/06 10:15:37;;;;;;;46.20;25.93;;;;;;;15.82;100.00;96704.31;5002607;28;20499;-90
2021/06/06 10:18:11;;;;;;;36.97;22.50;;;;;;;15.84;100.00;96698.34;5002949;28;20535;-90
2021/06/06 10:20:41;;;;;;;37.47;25.23;;;;;;;15.84;100.00;96699.06;5003473;28;20468;-90
2021/06/06 10:23:12;;;;;;;43.93;27.60;;;;;;;15.78;100.00;96704.03;5002104;28;20556;-89
2021/06/06 10:25:46;;;;;;;41.87;26.00;;;;;;;15.82;100.00;96714.53;5002933;28;20536;-90
2021/06/06 10:28:19;;;;;;;46.50;28.20;;;;;;;15.80;100.00;96701.47;5003175;28;20457;-90
2021/06/06 10:30:48;;;;;;;48.53;28.70;;;;;;;15.75;100.00;96704.44;5003349;28;20519;-89
2021/06/06 10:33:22;;;;;;;46.03;27.53;;;;;;;15.69;100.00;96704.72;5002656;28;20545;-90
2021/06/06 10:35:49;;;;;;;48.13;29.40;;;;;;;15.67;100.00;96722.88;5000759;28;20487;-90
2021/06/06 10:38:17;;;;;;;45.87;28.53;;;;;;;15.69;100.00;96718.31;5000934;28;20487;-92
2021/06/06 10:40:45;;;;;;;45.93;28.50;;;;;;;15.71;100.00;96715.75;5001408;28;20491;-91
2021/06/06 10:43:33;;;;;;;48.70;29.13;;;;;;;15.82;100.00;96709.06;5015350;28;20524;-96
2021/06/06 10:46:20;;;;;;;54.07;31.03;;;;;;;15.75;100.00;96709.91;5020879;28;20445;-96
2021/06/06 10:48:53;;;;;;;47.00;31.07;;;;;;;15.89;100.00;96708.22;5013039;28;20470;-92
2021/06/06 10:51:33;;;;;;;44.73;30.57;;;;;;;15.92;100.00;96709.81;5009815;28;20521;-91
2021/06/06 10:54:03;;;;;;;58.63;33.50;;;;;;;15.95;100.00;96708.66;5012164;28;20437;-93
2021/06/06 10:56:34;;;;;;;58.07;33.23;;;;;;;15.95;100.00;96709.41;5004933;28;20487;-91
2021/06/06 10:59:05;;;;;;;53.30;32.20;;;;;;;15.97;100.00;96706.13;5004159;28;20433;-92
2021/06/06 11:01:48;;;;;;;52.60;33.27;;;;;;;15.96;100.00;96708.13;5006792;28;20514;-90
2021/06/06 11:04:17;;;;;;;51.70;31.00;;;;;;;16.08;100.00;96700.84;5004153;28;20497;-92
2021/06/06 11:06:47;;;;;;;53.90;33.50;;;;;;;16.12;100.00;96702.44;5007848;28;20528;-92
2021/06/06 11:09:25;;;;;;;56.30;33.70;;;;;;;16.00;100.00;96699.53;5004576;28;20528;-92
2021/06/06 11:12:00;;;;;;;58.37;32.73;;;;;;;15.98;100.00;96699.38;5005942;28;20501;-91
2021/06/06 11:14:42;;;;;;;59.07;33.40;;;;;;;16.10;100.00;96702.28;5003644;28;20547;-90
2021/06/06 11:17:15;;;;;;;59.30;35.07;;;;;;;16.18;100.00;96691.97;5007226;28;20437;-91
2021/06/06 11:19:41;;;;;;;56.63;34.07;;;;;;;16.26;100.00;96698.00;5019110;28;20409;-88
2021/06/06 11:22:30;;;;;;;50.60;33.30;;;;;;;16.11;100.00;96690.81;5011384;28;20840;-91
2021/06/06 11:24:59;;;;;;;58.63;35.57;;;;;;;15.96;100.00;96689.06;5002977;28;20512;-89